Time,TemperatureF,DewpointF,PressureIn,WindDirection,WindDirectionDegrees,WindSpeedMPH,WindSpeedGustMPH,Humidity,HourlyPrecipIn,Conditions,Clouds,dailyrainin,SolarRadiationWatts/m^2,SoftwareType,DateUTC
2013-11-06 00:01:00,52.5,41.5,30.45,SSE,153,0.0,4.5,66,0.00,OVC,,0.00,0.0,WeatherDisplay:10.37,2013-11-06 05:01:00,
2013-11-06 00:02:00,52.5,40.3,30.44,SSE,151,2.5,8.1,63,0.00,OVC,,0.00,0.0,WeatherDisplay:10.37,2013-11-06 05:02:00,
2013-11-06 00:04:00,52.5,40.3,30.44,SSE,151,1.1,3.0,63,0.00,OVC,,0.00,0.0,WeatherDisplay:10.37,2013-11-06 05:04:00,
2013-11-06 00:07:00,52.3,40.1,30.44,SSE,150,5.6,6.0,63,0.00,OVC,,0.00,0.0,WeatherDisplay:10.37,2013-11-06 05:07:00,
2013-11-06 00:12:00,52.5,40.3,30.45,SSW,211,1.5,4.6,63,0.00,OVC,,0.00,0.0,WeatherDisplay:10.37,2013-11-06 05:12:00,
2013-11-06 00:17:00,52.5,40.3,30.44,SSW,205,2.4,6.0,63,0.00,OVC,,0.00,0.0,WeatherDisplay:10.37,2013-11-06 05:17:00,
2013-11-06 00:22:00,52.5,40.3,30.44,SSE,153,7.6,8.1,63,0.00,OVC,,0.00,0.0,WeatherDisplay:10.37,2013-11-06 05:22:00,
2013-11-06 00:27:00,52.6,40.4,30.45,SSE,156,7.4,13.5,63,0.00,OVC,,0.00,0.0,WeatherDisplay:10.37,2013-11-06 05:27:00,
2013-11-06 00:32:00,52.6,39.9,30.45,SSE,157,9.2,9.2,62,0.00,OVC,,0.00,0.0,WeatherDisplay:10.37,2013-11-06 05:32:00,
2013-11-06 00:37:00,52.6,40.4,30.44,SSE,159,2.0,8.1,63,0.00,OVC,,0.00,0.0,WeatherDisplay:10.37,2013-11-06 05:37:00,
2013-11-06 00:42:00,52.6,40.4,30.45,SSE,153,7.8,10.5,63,0.00,OVC,,0.00,0.0,WeatherDisplay:10.37,2013-11-06 05:42:00,
2013-11-06 00:47:00,52.6,40.4,30.45,South,175,5.4,5.8,63,0.00,OVC,,0.00,0.0,WeatherDisplay:10.37,2013-11-06 05:47:00,
2013-11-06 00:52:00,52.5,40.3,30.45,SSE,165,4.5,5.8,63,0.00,OVC,,0.00,0.0,WeatherDisplay:10.37,2013-11-06 05:52:00,
2013-11-06 00:57:00,52.5,40.3,30.45,SSE,157,0.8,3.5,63,0.00,OVC,,0.00,0.0,WeatherDisplay:10.37,2013-11-06 05:57:00,
2013-11-06 01:02:00,52.5,40.3,30.44,SSE,153,5.3,8.1,63,0.00,OVC,,0.00,0.0,WeatherDisplay:10.37,2013-11-06 06:02:00,
2013-11-06 01:07:00,52.3,40.1,30.44,SSE,152,5.0,8.1,63,0.00,OVC,,0.00,0.0,WeatherDisplay:10.37,2013-11-06 06:07:00,
2013-11-06 01:12:00,52.0,39.8,30.44,SSE,153,6.2,10.5,63,0.00,OVC,,0.00,0.0,WeatherDisplay:10.37,2013-11-06 06:12:00,
2013-11-06 01:17:00,51.9,39.7,30.43,SSE,149,4.5,8.1,63,0.00,OVC,,0.00,0.0,WeatherDisplay:10.37,2013-11-06 06:17:00,
2013-11-06 01:22:00,51.9,39.7,30.44,SSE,161,7.4,7.5,63,0.00,OVC,,0.00,0.0,WeatherDisplay:10.37,2013-11-06 06:22:00,
2013-11-06 01:27:00,51.9,39.7,30.44,SSE,155,7.3,9.0,63,0.00,OVC,,0.00,0.0,WeatherDisplay:10.37,2013-11-06 06:27:00,
2013-11-06 01:32:00,51.9,39.7,30.44,SSE,154,7.6,9.2,63,0.00,OVC,,0.00,0.0,WeatherDisplay:10.37,2013-11-06 06:32:00,
2013-11-06 01:37:00,52.0,40.2,30.44,SSE,156,4.5,5.8,64,0.00,OVC,,0.00,0.0,WeatherDisplay:10.37,2013-11-06 06:37:00,
2013-11-06 01:42:00,52.0,40.2,30.44,SSE,165,7.7,13.8,64,0.00,OVC,,0.00,0.0,WeatherDisplay:10.37,2013-11-06 06:42:00,
2013-11-06 01:47:00,52.2,40.4,30.44,SSE,152,6.9,12.0,64,0.00,OVC,,0.00,0.0,WeatherDisplay:10.37,2013-11-06 06:47:00,
2013-11-06 01:52:00,52.3,40.5,30.44,SSE,150,4.8,7.5,64,0.00,OVC,,0.00,0.0,WeatherDisplay:10.37,2013-11-06 06:52:00,
2013-11-06 01:57:00,52.3,40.5,30.44,SSE,156,2.6,4.6,64,0.00,OVC,,0.00,0.0,WeatherDisplay:10.37,2013-11-06 06:57:00,
2013-11-06 02:02:00,52.2,40.4,30.43,SSE,155,0.1,1.5,64,0.00,OVC,,0.00,0.0,WeatherDisplay:10.37,2013-11-06 07:02:00,
2013-11-06 02:07:00,52.0,40.2,30.43,SSE,155,0.0,3.5,64,0.00,OVC,,0.00,0.0,WeatherDisplay:10.37,2013-11-06 07:07:00,
2013-11-06 02:12:00,51.9,40.1,30.43,SSE,153,2.4,4.6,64,0.00,OVC,,0.00,0.0,WeatherDisplay:10.37,2013-11-06 07:12:00,
2013-11-06 02:17:00,51.6,40.2,30.43,SSE,153,1.0,3.5,65,0.00,OVC,,0.00,0.0,WeatherDisplay:10.37,2013-11-06 07:17:00,
2013-11-06 02:22:00,51.4,40.0,30.43,SSE,153,0.0,0.0,65,0.00,OVC,,0.00,0.0,WeatherDisplay:10.37,2013-11-06 07:22:00,
2013-11-06 02:27:00,51.1,39.7,30.42,SSE,153,0.7,3.0,65,0.00,OVC,,0.00,0.0,WeatherDisplay:10.37,2013-11-06 07:27:00,
2013-11-06 02:32:00,51.0,39.6,30.43,SSE,153,1.2,4.6,65,0.00,OVC,,0.00,0.0,WeatherDisplay:10.37,2013-11-06 07:32:00,
2013-11-06 02:37:00,50.7,39.4,30.42,SSE,153,0.9,4.5,65,0.00,OVC,,0.00,0.0,WeatherDisplay:10.37,2013-11-06 07:37:00,
2013-11-06 02:42:00,50.5,39.6,30.42,SSE,153,0.1,1.2,66,0.00,OVC,,0.00,0.0,WeatherDisplay:10.37,2013-11-06 07:42:00,
2013-11-06 02:47:00,50.2,39.3,30.42,SSE,153,0.0,0.0,66,0.00,OVC,,0.00,0.0,WeatherDisplay:10.37,2013-11-06 07:47:00,
2013-11-06 02:52:00,49.9,39.0,30.42,SSE,153,0.0,0.0,66,0.00,OVC,,0.00,0.0,WeatherDisplay:10.37,2013-11-06 07:52:00,
2013-11-06 02:57:00,49.6,38.7,30.41,SSE,153,0.0,0.0,66,0.00,OVC,,0.00,0.0,WeatherDisplay:10.37,2013-11-06 07:57:00,
2013-11-06 03:02:00,49.2,38.7,30.41,SSE,153,0.2,1.2,67,0.00,OVC,,0.00,0.0,WeatherDisplay:10.37,2013-11-06 08:02:00,
2013-11-06 03:07:00,49.1,39.0,30.41,SSE,153,0.6,3.0,68,0.00,OVC,,0.00,0.0,WeatherDisplay:10.37,2013-11-06 08:07:00,
2013-11-06 03:12:00,48.9,38.8,30.41,SSE,153,0.0,0.0,68,0.00,OVC,,0.00,0.0,WeatherDisplay:10.37,2013-11-06 08:12:00,
2013-11-06 03:17:00,48.9,39.2,30.41,SSE,153,0.0,0.0,69,0.00,OVC,,0.00,0.0,WeatherDisplay:10.37,2013-11-06 08:17:00,
2013-11-06 03:22:00,48.6,38.9,30.41,SSE,153,0.0,3.5,69,0.00,OVC,,0.00,0.0,WeatherDisplay:10.37,2013-11-06 08:22:00,
2013-11-06 03:27:00,48.5,39.2,30.41,SSE,153,0.5,3.5,70,0.00,OVC,,0.00,0.0,WeatherDisplay:10.37,2013-11-06 08:27:00,
2013-11-06 03:32:00,48.5,39.5,30.40,SSE,153,0.0,0.0,71,0.00,OVC,,0.00,0.0,WeatherDisplay:10.37,2013-11-06 08:32:00,
2013-11-06 03:37:00,48.3,39.3,30.40,SSE,153,0.0,0.0,71,0.00,OVC,,0.00,0.0,WeatherDisplay:10.37,2013-11-06 08:37:00,
2013-11-06 03:42:00,48.2,39.6,30.40,SSE,153,0.0,0.0,72,0.00,OVC,,0.00,0.0,WeatherDisplay:10.37,2013-11-06 08:42:00,
2013-11-06 03:47:00,48.2,39.6,30.39,SSE,153,0.0,3.5,72,0.00,OVC,,0.00,0.0,WeatherDisplay:10.37,2013-11-06 08:47:00,
2013-11-06 03:52:00,48.2,39.9,30.40,SSE,153,0.0,0.0,73,0.00,OVC,,0.00,0.0,WeatherDisplay:10.37,2013-11-06 08:52:00,
2013-11-06 03:57:00,48.0,40.1,30.40,SSE,153,0.0,0.0,74,0.00,OVC,,0.00,0.0,WeatherDisplay:10.37,2013-11-06 08:57:00,
2013-11-06 04:02:00,47.9,40.0,30.40,SSE,153,0.0,0.0,74,0.00,OVC,,0.00,0.0,WeatherDisplay:10.37,2013-11-06 09:02:00,
2013-11-06 04:07:00,47.9,40.0,30.40,SSE,153,0.0,0.0,74,0.00,OVC,,0.00,0.0,WeatherDisplay:10.37,2013-11-06 09:07:00,
2013-11-06 04:12:00,47.9,40.4,30.40,SSE,153,0.0,0.0,75,0.00,OVC,,0.00,0.0,WeatherDisplay:10.37,2013-11-06 09:12:00,
2013-11-06 04:17:00,48.0,40.5,30.40,SSE,153,0.0,0.0,75,0.00,OVC,,0.00,0.0,WeatherDisplay:10.37,2013-11-06 09:17:00,
2013-11-06 04:22:00,48.0,40.5,30.39,SSE,153,0.0,0.0,75,0.00,OVC,,0.00,0.0,WeatherDisplay:10.37,2013-11-06 09:22:00,
2013-11-06 04:27:00,48.0,40.5,30.39,SSE,153,0.0,0.0,75,0.00,OVC,,0.00,0.0,WeatherDisplay:10.37,2013-11-06 09:27:00,
2013-11-06 04:32:00,48.0,40.8,30.39,SSE,153,0.0,0.0,76,0.00,OVC,,0.00,0.0,WeatherDisplay:10.37,2013-11-06 09:32:00,
2013-11-06 04:37:00,48.0,40.8,30.39,SSE,153,0.0,0.0,76,0.00,OVC,,0.00,0.0,WeatherDisplay:10.37,2013-11-06 09:37:00,
2013-11-06 04:42:00,48.3,41.4,30.39,SSE,153,0.0,0.0,77,0.00,OVC,,0.00,0.0,WeatherDisplay:10.37,2013-11-06 09:42:00,
2013-11-06 04:47:00,48.5,41.6,30.38,SSE,153,0.0,0.0,77,0.00,OVC,,0.00,0.0,WeatherDisplay:10.37,2013-11-06 09:47:00,
2013-11-06 04:52:00,48.6,41.7,30.38,SSE,153,0.0,0.0,77,0.00,OVC,,0.00,0.0,WeatherDisplay:10.37,2013-11-06 09:52:00,
2013-11-06 04:57:00,48.5,41.6,30.38,SSE,153,0.0,0.0,77,0.00,OVC,,0.00,0.0,WeatherDisplay:10.37,2013-11-06 09:57:00,
2013-11-06 05:02:00,48.2,41.0,30.38,SSE,153,0.0,0.0,76,0.00,OVC,,0.00,0.0,WeatherDisplay:10.37,2013-11-06 10:02:00,
2013-11-06 05:07:00,47.6,40.4,30.38,SSE,153,0.0,0.0,76,0.00,OVC,,0.00,0.0,WeatherDisplay:10.37,2013-11-06 10:07:00,
2013-11-06 05:12:00,47.3,40.1,30.38,SSE,153,0.0,0.0,76,0.00,OVC,,0.00,0.0,WeatherDisplay:10.37,2013-11-06 10:12:00,
2013-11-06 05:17:00,46.7,39.5,30.38,SSE,153,0.0,0.0,76,0.00,OVC,,0.00,0.0,WeatherDisplay:10.37,2013-11-06 10:17:00,
2013-11-06 05:22:00,46.2,39.4,30.38,SSE,153,0.0,0.0,77,0.00,OVC,,0.00,0.0,WeatherDisplay:10.37,2013-11-06 10:22:00,
2013-11-06 05:27:00,45.7,38.9,30.38,SSE,153,0.0,0.0,77,0.00,OVC,,0.00,0.0,WeatherDisplay:10.37,2013-11-06 10:27:00,
2013-11-06 05:32:00,45.4,38.9,30.38,SSE,153,0.0,0.0,78,0.00,OVC,,0.00,0.0,WeatherDisplay:10.37,2013-11-06 10:32:00,
2013-11-06 05:37:00,44.9,38.5,30.38,SSE,153,0.0,0.0,78,0.00,OVC,,0.00,0.0,WeatherDisplay:10.37,2013-11-06 10:37:00,
2013-11-06 05:42:00,44.8,38.4,30.38,SSE,153,0.0,0.0,78,0.00,OVC,,0.00,0.0,WeatherDisplay:10.37,2013-11-06 10:42:00,
2013-11-06 05:47:00,44.6,38.5,30.38,SSE,153,0.0,0.0,79,0.00,OVC,,0.00,0.0,WeatherDisplay:10.37,2013-11-06 10:47:00,
2013-11-06 05:52:00,44.5,38.4,30.38,SSE,153,0.0,0.0,79,0.00,OVC,,0.00,0.0,WeatherDisplay:10.37,2013-11-06 10:52:00,
2013-11-06 05:57:00,44.2,38.4,30.38,SSE,153,0.0,0.0,80,0.00,OVC,,0.00,0.0,WeatherDisplay:10.37,2013-11-06 10:57:00,
2013-11-06 06:02:00,43.9,38.1,30.38,SSE,153,0.0,0.0,80,0.00,OVC,,0.00,0.0,WeatherDisplay:10.37,2013-11-06 11:02:00,
2013-11-06 06:07:00,43.9,38.4,30.38,SSE,153,0.0,0.0,81,0.00,OVC,,0.00,0.0,WeatherDisplay:10.37,2013-11-06 11:07:00,
2013-11-06 06:12:00,44.9,39.7,30.38,SSE,153,0.0,0.0,82,0.00,OVC,,0.00,0.0,WeatherDisplay:10.37,2013-11-06 11:12:00,
2013-11-06 06:17:00,45.7,40.8,30.38,SSE,153,0.0,0.0,83,0.00,OVC,,0.00,0.0,WeatherDisplay:10.37,2013-11-06 11:17:00,
2013-11-06 06:22:00,46.0,41.1,30.38,SSE,153,0.0,0.0,83,0.00,OVC,,0.00,0.0,WeatherDisplay:10.37,2013-11-06 11:22:00,
2013-11-06 06:27:00,45.8,40.9,30.38,SSE,153,0.0,0.0,83,0.00,OVC,,0.00,0.0,WeatherDisplay:10.37,2013-11-06 11:27:00,
2013-11-06 06:32:00,45.5,40.6,30.38,SSE,153,0.0,0.0,83,0.00,OVC,,0.00,0.0,WeatherDisplay:10.37,2013-11-06 11:32:00,
2013-11-06 06:37:00,45.2,40.0,30.38,SSE,153,0.0,0.0,82,0.00,OVC,,0.00,0.0,WeatherDisplay:10.37,2013-11-06 11:37:00,
2013-11-06 06:42:00,44.6,39.8,30.38,SSE,153,0.0,0.0,83,0.00,OVC,,0.00,0.0,WeatherDisplay:10.37,2013-11-06 11:42:00,
2013-11-06 06:47:00,44.5,39.7,30.38,SSE,153,0.0,0.0,83,0.00,OVC,,0.00,0.0,WeatherDisplay:10.37,2013-11-06 11:47:00,
2013-11-06 06:52:00,44.3,39.5,30.38,SSE,153,0.0,0.0,83,0.00,OVC,,0.00,7.0,WeatherDisplay:10.37,2013-11-06 11:52:00,
2013-11-06 06:57:00,44.3,39.5,30.38,SSE,153,0.0,0.0,83,0.00,OVC,,0.00,9.0,WeatherDisplay:10.37,2013-11-06 11:57:00,
2013-11-06 07:02:00,44.2,39.7,30.38,SSE,153,0.0,0.0,84,0.00,OVC,,0.00,12.0,WeatherDisplay:10.37,2013-11-06 12:02:00,
2013-11-06 07:07:00,44.2,39.7,30.38,SSE,153,0.0,0.0,84,0.00,OVC,,0.00,14.0,WeatherDisplay:10.37,2013-11-06 12:07:00,
2013-11-06 07:12:00,44.6,40.1,30.38,SSE,153,0.0,0.0,84,0.00,BKN,,0.00,16.0,WeatherDisplay:10.37,2013-11-06 12:12:00,
2013-11-06 07:17:00,45.7,41.4,30.38,SSE,153,0.0,0.0,85,0.00,BKN,,0.00,18.0,WeatherDisplay:10.37,2013-11-06 12:17:00,
2013-11-06 07:22:00,46.1,41.8,30.37,SSE,153,0.0,0.0,85,0.00,BKN,,0.00,25.0,WeatherDisplay:10.37,2013-11-06 12:22:00,
2013-11-06 07:27:00,46.4,42.1,30.37,SSE,153,0.0,0.0,85,0.00,BKN,,0.00,56.0,WeatherDisplay:10.37,2013-11-06 12:27:00,
2013-11-06 07:32:00,47.1,43.1,30.37,SSE,153,0.0,0.0,86,0.00,BKN,,0.00,69.0,WeatherDisplay:10.37,2013-11-06 12:32:00,
2013-11-06 07:37:00,47.9,43.9,30.36,SSE,153,0.0,0.0,86,0.00,BKN,,0.00,51.0,WeatherDisplay:10.37,2013-11-06 12:37:00,
2013-11-06 07:42:00,48.5,44.5,30.37,SSE,153,0.0,3.5,86,0.00,BKN,,0.00,40.0,WeatherDisplay:10.37,2013-11-06 12:42:00,
2013-11-06 07:47:00,48.9,44.9,30.36,SSE,153,0.0,0.0,86,0.00,BKN,,0.00,33.0,WeatherDisplay:10.37,2013-11-06 12:47:00,
2013-11-06 07:52:00,49.4,45.1,30.36,SSE,153,0.0,1.2,85,0.00,BKN,,0.00,32.0,WeatherDisplay:10.37,2013-11-06 12:52:00,
2013-11-06 07:57:00,49.8,45.5,30.36,SSE,151,0.9,3.5,85,0.00,BKN,,0.00,42.0,WeatherDisplay:10.37,2013-11-06 12:57:00,
2013-11-06 08:02:00,50.5,45.8,30.36,SSE,148,2.4,9.2,84,0.00,BKN,,0.00,49.0,WeatherDisplay:10.37,2013-11-06 13:02:00,
2013-11-06 08:07:00,51.1,46.1,30.36,SSE,149,2.2,9.2,83,0.00,BKN,,0.00,47.0,WeatherDisplay:10.37,2013-11-06 13:07:00,
2013-11-06 08:12:00,51.7,46.4,30.35,SSE,153,2.1,4.5,82,0.00,BKN,,0.00,54.0,WeatherDisplay:10.37,2013-11-06 13:12:00,
2013-11-06 08:17:00,52.3,46.3,30.35,SSE,149,1.6,4.6,80,0.00,BKN,,0.00,76.0,WeatherDisplay:10.37,2013-11-06 13:17:00,
2013-11-06 08:22:00,52.8,46.5,30.35,SSE,149,5.3,8.1,79,0.00,BKN,,0.00,51.0,WeatherDisplay:10.37,2013-11-06 13:22:00,
2013-11-06 08:27:00,53.5,46.5,30.34,SSE,154,9.6,10.4,77,0.00,BKN,,0.00,98.0,WeatherDisplay:10.37,2013-11-06 13:27:00,
2013-11-06 08:32:00,53.9,46.2,30.34,SSE,153,10.5,10.5,75,0.00,BKN,,0.00,134.0,WeatherDisplay:10.37,2013-11-06 13:32:00,
2013-11-06 08:37:00,54.4,45.9,30.34,SSW,210,5.7,9.2,73,0.00,BKN,,0.00,84.0,WeatherDisplay:10.37,2013-11-06 13:37:00,
2013-11-06 08:42:00,54.8,45.9,30.34,SSE,150,4.5,10.4,72,0.00,BKN,,0.00,74.0,WeatherDisplay:10.37,2013-11-06 13:42:00,
2013-11-06 08:47:00,55.3,46.1,30.35,SW,219,6.3,7.5,71,0.00,BKN,,0.00,163.0,WeatherDisplay:10.37,2013-11-06 13:47:00,
2013-11-06 08:52:00,55.7,46.1,30.34,SSE,155,7.5,7.5,70,0.00,BKN,,0.00,274.0,WeatherDisplay:10.37,2013-11-06 13:52:00,
2013-11-06 08:57:00,55.9,45.5,30.34,SSE,153,9.3,12.0,68,0.00,BKN,,0.00,308.0,WeatherDisplay:10.37,2013-11-06 13:57:00,
2013-11-06 09:02:00,56.2,45.4,30.34,SW,232,8.2,9.2,67,0.00,BKN,,0.00,323.0,WeatherDisplay:10.37,2013-11-06 14:02:00,
2013-11-06 09:07:00,56.7,45.5,30.34,SW,233,5.5,10.4,66,0.00,BKN,,0.00,336.0,WeatherDisplay:10.37,2013-11-06 14:07:00,
2013-11-06 09:12:00,57.2,45.9,30.34,SSE,153,8.1,10.5,66,0.00,BKN,,0.00,348.0,WeatherDisplay:10.37,2013-11-06 14:12:00,
2013-11-06 09:17:00,57.5,45.0,30.34,SSW,209,17.4,18.4,63,0.00,BKN,,0.00,360.0,WeatherDisplay:10.37,2013-11-06 14:17:00,
2013-11-06 09:22:00,57.6,45.1,30.34,WSW,239,14.8,16.5,63,0.00,BKN,,0.00,371.0,WeatherDisplay:10.37,2013-11-06 14:22:00,
2013-11-06 09:27:00,58.0,45.5,30.33,SE,136,12.6,16.1,63,0.00,BKN,,0.00,380.0,WeatherDisplay:10.37,2013-11-06 14:27:00,
2013-11-06 09:32:00,58.3,45.3,30.33,SW,219,9.7,10.5,62,0.00,BKN,,0.00,392.0,WeatherDisplay:10.37,2013-11-06 14:32:00,
2013-11-06 09:37:00,58.9,45.5,30.33,SE,144,16.7,18.4,61,0.00,BKN,,0.00,404.0,WeatherDisplay:10.37,2013-11-06 14:37:00,
2013-11-06 09:42:00,58.9,45.5,30.33,SE,134,11.8,15.0,61,0.00,BKN,,0.00,411.0,WeatherDisplay:10.37,2013-11-06 14:42:00,
2013-11-06 09:47:00,59.2,45.3,30.33,SSE,161,9.0,18.4,60,0.00,BKN,,0.00,422.0,WeatherDisplay:10.37,2013-11-06 14:47:00,
2013-11-06 09:52:00,59.3,45.4,30.33,SW,223,8.4,12.0,60,0.00,BKN,,0.00,427.0,WeatherDisplay:10.37,2013-11-06 14:52:00,
2013-11-06 09:57:00,59.6,45.2,30.33,SE,145,10.3,15.0,59,0.00,BKN,,0.00,436.0,WeatherDisplay:10.37,2013-11-06 14:57:00,
2013-11-06 10:02:00,59.9,45.1,30.33,SE,128,13.4,18.0,58,0.00,BKN,,0.00,448.0,WeatherDisplay:10.37,2013-11-06 15:02:00,
2013-11-06 10:07:00,59.9,45.1,30.32,SSE,166,12.1,15.0,58,0.00,BKN,,0.00,452.0,WeatherDisplay:10.37,2013-11-06 15:07:00,
2013-11-06 10:12:00,60.4,45.1,30.32,SE,133,11.6,15.0,57,0.00,BKN,,0.00,462.0,WeatherDisplay:10.37,2013-11-06 15:12:00,
2013-11-06 10:17:00,60.7,45.4,30.32,SSE,159,11.3,15.0,57,0.00,BKN,,0.00,466.0,WeatherDisplay:10.37,2013-11-06 15:17:00,
2013-11-06 10:22:00,60.7,45.4,30.32,South,191,7.1,10.4,57,0.00,BKN,,0.00,473.0,WeatherDisplay:10.37,2013-11-06 15:22:00,
2013-11-06 10:27:00,61.2,45.8,30.31,SSE,151,10.9,15.0,57,0.00,BKN,,0.00,480.0,WeatherDisplay:10.37,2013-11-06 15:27:00,
2013-11-06 10:32:00,61.5,45.7,30.31,SSE,153,7.4,10.4,56,0.00,BKN,,0.00,483.0,WeatherDisplay:10.37,2013-11-06 15:32:00,
2013-11-06 10:37:00,61.2,44.9,30.31,SW,225,13.8,18.4,55,0.00,BKN,,0.00,497.0,WeatherDisplay:10.37,2013-11-06 15:37:00,
2013-11-06 10:42:00,61.3,45.0,30.31,SSE,155,11.9,19.6,55,0.00,BKN,,0.00,506.0,WeatherDisplay:10.37,2013-11-06 15:42:00,
2013-11-06 10:47:00,61.6,45.7,30.31,SSW,210,11.7,13.8,56,0.00,BKN,,0.00,512.0,WeatherDisplay:10.37,2013-11-06 15:47:00,
2013-11-06 10:52:00,61.8,45.0,30.31,SSW,213,15.0,24.0,54,0.00,BKN,,0.00,519.0,WeatherDisplay:10.37,2013-11-06 15:52:00,
2013-11-06 10:57:00,61.8,45.5,30.31,SSW,209,11.6,19.6,55,0.00,BKN,,0.00,527.0,WeatherDisplay:10.37,2013-11-06 15:57:00,
2013-11-06 11:02:00,62.3,45.4,30.30,SW,236,9.5,13.5,54,0.00,BKN,,0.00,531.0,WeatherDisplay:10.37,2013-11-06 16:02:00,
2013-11-06 11:07:00,62.9,46.0,30.30,SE,136,15.7,18.0,54,0.00,BKN,,0.00,529.0,WeatherDisplay:10.37,2013-11-06 16:07:00,
2013-11-06 11:12:00,63.1,45.7,30.29,SSE,167,5.5,13.8,53,0.00,SCT,,0.00,526.0,WeatherDisplay:10.37,2013-11-06 16:12:00,
2013-11-06 11:17:00,63.2,46.3,30.29,SW,221,11.8,13.8,54,0.00,SCT,,0.00,526.0,WeatherDisplay:10.37,2013-11-06 16:17:00,
2013-11-06 11:22:00,63.7,46.7,30.29,SSE,152,7.1,16.5,54,0.00,SCT,,0.00,524.0,WeatherDisplay:10.37,2013-11-06 16:22:00,
2013-11-06 11:27:00,63.2,45.8,30.29,WSW,244,9.6,15.0,53,0.00,SCT,,0.00,529.0,WeatherDisplay:10.37,2013-11-06 16:27:00,
2013-11-06 11:32:00,63.4,46.0,30.29,SE,134,17.1,17.1,53,0.00,SCT,,0.00,534.0,WeatherDisplay:10.37,2013-11-06 16:32:00,
2013-11-06 11:37:00,63.2,45.8,30.28,SW,227,12.7,18.4,53,0.00,SCT,,0.00,538.0,WeatherDisplay:10.37,2013-11-06 16:37:00,
2013-11-06 11:42:00,63.4,45.5,30.28,WSW,237,13.4,18.0,52,0.00,SCT,,0.00,536.0,WeatherDisplay:10.37,2013-11-06 16:42:00,
2013-11-06 11:47:00,63.2,45.8,30.28,SW,231,16.2,16.5,53,0.00,SCT,,0.00,536.0,WeatherDisplay:10.37,2013-11-06 16:47:00,
2013-11-06 11:52:00,63.5,46.6,30.27,WSW,250,8.3,9.2,54,0.00,SCT,,0.00,534.0,WeatherDisplay:10.37,2013-11-06 16:52:00,
2013-11-06 11:57:00,64.0,46.0,30.27,SE,138,11.8,16.1,52,0.00,SCT,,0.00,545.0,WeatherDisplay:10.37,2013-11-06 16:57:00,
2013-11-06 12:02:00,64.5,46.0,30.27,SSE,162,5.9,15.0,51,0.00,SCT,,0.00,605.0,WeatherDisplay:10.37,2013-11-06 17:02:00,
2013-11-06 12:07:00,65.0,45.9,30.26,SW,219,7.3,13.8,50,0.00,SCT,,0.00,563.0,WeatherDisplay:10.37,2013-11-06 17:07:00,
2013-11-06 12:12:00,65.2,45.0,30.26,SSE,147,11.9,18.4,48,0.00,SCT,,0.00,589.0,WeatherDisplay:10.37,2013-11-06 17:12:00,
2013-11-06 12:17:00,65.0,46.4,30.26,South,176,10.4,13.8,51,0.00,SCT,,0.00,564.0,WeatherDisplay:10.37,2013-11-06 17:17:00,
2013-11-06 12:22:00,65.3,45.6,30.25,SW,219,9.7,13.5,49,0.00,SCT,,0.00,517.0,WeatherDisplay:10.37,2013-11-06 17:22:00,
2013-11-06 12:27:00,65.2,46.6,30.24,SW,232,10.7,13.8,51,0.00,SCT,,0.00,610.0,WeatherDisplay:10.37,2013-11-06 17:27:00,
2013-11-06 12:32:00,65.5,46.4,30.24,SE,146,12.1,15.0,50,0.00,SCT,,0.00,552.0,WeatherDisplay:10.37,2013-11-06 17:32:00,
2013-11-06 12:37:00,65.6,46.5,30.24,SW,234,11.0,12.0,50,0.00,SCT,,0.00,608.0,WeatherDisplay:10.37,2013-11-06 17:37:00,
2013-11-06 12:42:00,66.1,45.3,30.24,SSE,161,9.5,13.8,47,0.00,SCT,,0.00,582.0,WeatherDisplay:10.37,2013-11-06 17:42:00,
2013-11-06 12:47:00,66.4,46.1,30.23,SW,224,14.5,18.4,48,0.00,SCT,,0.00,503.0,WeatherDisplay:10.37,2013-11-06 17:47:00,
2013-11-06 12:52:00,66.4,46.1,30.23,SE,142,8.0,15.0,48,0.00,SCT,,0.00,503.0,WeatherDisplay:10.37,2013-11-06 17:52:00,
2013-11-06 12:57:00,66.8,45.3,30.22,South,171,14.3,18.0,46,0.00,SCT,,0.00,482.0,WeatherDisplay:10.37,2013-11-06 17:57:00,
2013-11-06 13:02:00,66.8,45.3,30.23,SSE,148,9.0,15.0,46,0.00,BKN,,0.00,508.0,WeatherDisplay:10.37,2013-11-06 18:02:00,
2013-11-06 13:07:00,67.3,46.4,30.23,SSE,159,7.9,9.2,47,0.00,BKN,,0.00,512.0,WeatherDisplay:10.37,2013-11-06 18:07:00,
2013-11-06 13:12:00,67.6,45.5,30.22,South,170,11.3,13.8,45,0.00,BKN,,0.00,499.0,WeatherDisplay:10.37,2013-11-06 18:12:00,
2013-11-06 13:17:00,67.6,44.9,30.21,SSE,153,13.0,25.3,44,0.00,BKN,,0.00,452.0,WeatherDisplay:10.37,2013-11-06 18:17:00,
2013-11-06 13:22:00,67.3,45.2,30.21,SSE,150,10.4,11.5,45,0.00,BKN,,0.00,504.0,WeatherDisplay:10.37,2013-11-06 18:22:00,
2013-11-06 13:27:00,67.8,45.1,30.21,SSE,148,9.9,19.6,44,0.00,BKN,,0.00,100.0,WeatherDisplay:10.37,2013-11-06 18:27:00,
2013-11-06 13:32:00,67.1,45.6,30.21,SW,232,14.3,18.0,46,0.00,BKN,,0.00,468.0,WeatherDisplay:10.37,2013-11-06 18:32:00,
2013-11-06 13:37:00,67.3,45.2,30.21,SSW,192,7.1,9.2,45,0.00,BKN,,0.00,457.0,WeatherDisplay:10.37,2013-11-06 18:37:00,
2013-11-06 13:42:00,67.6,45.5,30.21,South,190,15.4,21.0,45,0.00,BKN,,0.00,446.0,WeatherDisplay:10.37,2013-11-06 18:42:00,
2013-11-06 13:47:00,67.3,45.2,30.20,SW,222,9.3,13.5,45,0.00,BKN,,0.00,410.0,WeatherDisplay:10.37,2013-11-06 18:47:00,
2013-11-06 13:52:00,67.6,44.9,30.20,SSE,168,8.9,15.0,44,0.00,BKN,,0.00,431.0,WeatherDisplay:10.37,2013-11-06 18:52:00,
2013-11-06 13:57:00,67.4,44.7,30.20,ESE,119,8.1,18.4,44,0.00,BKN,,0.00,427.0,WeatherDisplay:10.37,2013-11-06 18:57:00,
2013-11-06 14:02:00,67.3,44.6,30.20,SE,144,15.5,18.4,44,0.00,BKN,,0.00,420.0,WeatherDisplay:10.37,2013-11-06 19:02:00,
2013-11-06 14:07:00,67.4,44.7,30.19,SE,141,14.0,16.1,44,0.00,BKN,,0.00,413.0,WeatherDisplay:10.37,2013-11-06 19:07:00,
2013-11-06 14:12:00,67.3,45.2,30.19,South,182,13.7,19.6,45,0.00,BKN,,0.00,332.0,WeatherDisplay:10.37,2013-11-06 19:12:00,
2013-11-06 14:17:00,67.3,45.2,30.19,SSE,148,13.0,16.1,45,0.00,BKN,,0.00,371.0,WeatherDisplay:10.37,2013-11-06 19:17:00,
2013-11-06 14:22:00,67.6,46.1,30.18,South,171,8.7,15.0,46,0.00,BKN,,0.00,385.0,WeatherDisplay:10.37,2013-11-06 19:22:00,
2013-11-06 14:27:00,67.8,45.1,30.18,SSE,153,17.8,24.2,44,0.00,BKN,,0.00,279.0,WeatherDisplay:10.37,2013-11-06 19:27:00,
2013-11-06 14:32:00,67.6,45.5,30.18,SSE,155,11.3,16.5,45,0.00,BKN,,0.00,357.0,WeatherDisplay:10.37,2013-11-06 19:32:00,
2013-11-06 14:37:00,67.4,45.3,30.18,SE,143,15.8,18.0,45,0.00,BKN,,0.00,334.0,WeatherDisplay:10.37,2013-11-06 19:37:00,
2013-11-06 14:42:00,67.6,45.5,30.18,SSE,148,13.5,19.6,45,0.00,BKN,,0.00,302.0,WeatherDisplay:10.37,2013-11-06 19:42:00,
2013-11-06 14:47:00,67.8,45.7,30.18,SE,141,12.3,12.3,45,0.00,BKN,,0.00,244.0,WeatherDisplay:10.37,2013-11-06 19:47:00,
2013-11-06 14:52:00,67.6,45.5,30.17,South,185,13.5,18.4,45,0.00,BKN,,0.00,251.0,WeatherDisplay:10.37,2013-11-06 19:52:00,
2013-11-06 14:57:00,67.6,46.1,30.17,SSE,150,16.0,18.4,46,0.00,BKN,,0.00,341.0,WeatherDisplay:10.37,2013-11-06 19:57:00,
2013-11-06 15:02:00,67.9,45.8,30.17,SSE,168,10.1,19.5,45,0.00,BKN,,0.00,318.0,WeatherDisplay:10.37,2013-11-06 20:02:00,
2013-11-06 15:07:00,67.9,45.8,30.17,SSE,147,9.0,13.8,45,0.00,BKN,,0.00,278.0,WeatherDisplay:10.37,2013-11-06 20:07:00,
2013-11-06 15:13:00,67.8,45.7,30.17,SE,143,17.6,21.0,45,0.00,BKN,,0.00,250.0,WeatherDisplay:10.37,2013-11-06 20:13:00,
2013-11-06 15:18:00,67.8,45.7,30.16,SE,144,11.9,18.4,45,0.00,BKN,,0.00,232.0,WeatherDisplay:10.37,2013-11-06 20:18:00,
2013-11-06 15:23:00,67.8,45.7,30.16,SSE,152,14.9,18.0,45,0.00,BKN,,0.00,214.0,WeatherDisplay:10.37,2013-11-06 20:23:00,
2013-11-06 15:28:00,67.8,45.7,30.16,SSE,153,11.2,15.0,45,0.00,BKN,,0.00,195.0,WeatherDisplay:10.37,2013-11-06 20:28:00,
2013-11-06 15:33:00,67.9,45.8,30.16,SE,141,11.7,18.4,45,0.00,BKN,,0.00,179.0,WeatherDisplay:10.37,2013-11-06 20:33:00,
2013-11-06 15:38:00,68.1,45.9,30.16,SSW,213,7.1,16.1,45,0.00,BKN,,0.00,165.0,WeatherDisplay:10.37,2013-11-06 20:38:00,
2013-11-06 15:43:00,68.3,44.9,30.16,SSE,161,8.4,13.8,43,0.00,BKN,,0.00,153.0,WeatherDisplay:10.37,2013-11-06 20:43:00,
2013-11-06 15:48:00,68.1,45.4,30.15,SSE,148,13.5,18.4,44,0.00,BKN,,0.00,135.0,WeatherDisplay:10.37,2013-11-06 20:48:00,
2013-11-06 15:53:00,67.9,45.8,30.15,WSW,252,12.2,19.5,45,0.00,BKN,,0.00,123.0,WeatherDisplay:10.37,2013-11-06 20:53:00,
2013-11-06 15:58:00,67.8,45.7,30.15,SSE,159,9.5,9.5,45,0.00,BKN,,0.00,104.0,WeatherDisplay:10.37,2013-11-06 20:58:00,
2013-11-06 16:03:00,67.4,45.3,30.15,SSE,159,8.6,10.4,45,0.00,SCT,,0.00,88.0,WeatherDisplay:10.37,2013-11-06 21:03:00,
2013-11-06 16:08:00,67.3,45.2,30.15,SE,138,7.7,10.4,45,0.00,SCT,,0.00,83.0,WeatherDisplay:10.37,2013-11-06 21:08:00,
2013-11-06 16:13:00,66.9,45.4,30.15,SSW,196,5.8,9.0,46,0.00,SCT,,0.00,69.0,WeatherDisplay:10.37,2013-11-06 21:13:00,
2013-11-06 16:18:00,66.6,45.2,30.14,SSE,153,9.7,16.1,46,0.00,SCT,,0.00,56.0,WeatherDisplay:10.37,2013-11-06 21:18:00,
2013-11-06 16:23:00,66.3,44.9,30.14,SSE,148,11.5,19.6,46,0.00,SCT,,0.00,44.0,WeatherDisplay:10.37,2013-11-06 21:23:00,
2013-11-06 16:28:00,66.0,45.2,30.14,SE,144,15.2,18.4,47,0.00,SCT,,0.00,30.0,WeatherDisplay:10.37,2013-11-06 21:28:00,
2013-11-06 16:33:00,65.6,45.4,30.14,SSE,159,8.1,11.5,48,0.00,SCT,,0.00,18.0,WeatherDisplay:10.37,2013-11-06 21:33:00,
2013-11-06 16:38:00,65.2,45.0,30.14,SSE,147,10.9,16.1,48,0.00,SCT,,0.00,16.0,WeatherDisplay:10.37,2013-11-06 21:38:00,
2013-11-06 16:43:00,65.0,45.4,30.14,SE,143,10.9,10.9,49,0.00,SCT,,0.00,14.0,WeatherDisplay:10.37,2013-11-06 21:43:00,
2013-11-06 16:48:00,64.7,45.1,30.14,SSE,151,14.6,18.4,49,0.00,SCT,,0.00,11.0,WeatherDisplay:10.37,2013-11-06 21:48:00,
2013-11-06 16:53:00,64.5,45.4,30.14,SSE,161,17.5,19.5,50,0.00,SCT,,0.00,9.0,WeatherDisplay:10.37,2013-11-06 21:53:00,
2013-11-06 16:58:00,64.5,45.4,30.14,SSE,156,18.1,20.7,50,0.00,SCT,,0.00,7.0,WeatherDisplay:10.37,2013-11-06 21:58:00,
2013-11-06 17:03:00,64.2,45.2,30.14,SSE,156,8.0,16.1,50,0.00,BKN,,0.00,5.0,WeatherDisplay:10.37,2013-11-06 22:03:00,
2013-11-06 17:08:00,63.9,45.4,30.14,SE,138,12.5,15.0,51,0.00,BKN,,0.00,0.0,WeatherDisplay:10.37,2013-11-06 22:08:00,
2013-11-06 17:13:00,63.7,45.2,30.14,SSE,149,12.1,18.0,51,0.00,BKN,,0.00,0.0,WeatherDisplay:10.37,2013-11-06 22:13:00,
2013-11-06 17:18:00,63.5,45.0,30.13,SSW,194,15.1,19.5,51,0.00,BKN,,0.00,0.0,WeatherDisplay:10.37,2013-11-06 22:18:00,
2013-11-06 17:23:00,63.5,45.6,30.13,SSE,152,15.1,15.1,52,0.00,BKN,,0.00,0.0,WeatherDisplay:10.37,2013-11-06 22:23:00,
2013-11-06 17:28:00,63.4,45.5,30.14,SSE,148,12.4,15.0,52,0.00,BKN,,0.00,0.0,WeatherDisplay:10.37,2013-11-06 22:28:00,
2013-11-06 17:33:00,63.4,45.5,30.13,SE,137,12.1,21.0,52,0.00,BKN,,0.00,0.0,WeatherDisplay:10.37,2013-11-06 22:33:00,
2013-11-06 17:38:00,63.2,45.3,30.13,SSE,159,12.0,15.0,52,0.00,BKN,,0.00,0.0,WeatherDisplay:10.37,2013-11-06 22:38:00,
2013-11-06 17:43:00,63.2,45.3,30.13,SE,139,14.1,19.5,52,0.00,BKN,,0.00,0.0,WeatherDisplay:10.37,2013-11-06 22:43:00,
2013-11-06 17:48:00,63.2,45.3,30.12,SSE,163,18.5,28.5,52,0.00,BKN,,0.00,0.0,WeatherDisplay:10.37,2013-11-06 22:48:00,
2013-11-06 17:53:00,62.9,45.5,30.12,SSE,163,17.2,20.7,53,0.00,BKN,,0.00,0.0,WeatherDisplay:10.37,2013-11-06 22:53:00,
2013-11-06 17:58:00,62.9,45.5,30.12,SSE,158,13.0,23.0,53,0.00,BKN,,0.00,0.0,WeatherDisplay:10.37,2013-11-06 22:58:00,
2013-11-06 18:03:00,62.7,45.8,30.12,SE,135,16.8,21.0,54,0.00,BKN,,0.00,0.0,WeatherDisplay:10.37,2013-11-06 23:03:00,
2013-11-06 18:08:00,62.7,45.3,30.12,SE,136,15.9,20.7,53,0.00,BKN,,0.00,0.0,WeatherDisplay:10.37,2013-11-06 23:08:00,
2013-11-06 18:13:00,62.6,45.7,30.12,SSW,194,13.9,18.4,54,0.00,BKN,,0.00,0.0,WeatherDisplay:10.37,2013-11-06 23:13:00,
2013-11-06 18:18:00,62.6,45.7,30.12,SE,136,15.8,23.0,54,0.00,BKN,,0.00,0.0,WeatherDisplay:10.37,2013-11-06 23:18:00,
2013-11-06 18:23:00,62.4,45.5,30.12,SSE,150,7.0,15.0,54,0.00,BKN,,0.00,0.0,WeatherDisplay:10.37,2013-11-06 23:23:00,
2013-11-06 18:28:00,62.3,45.4,30.12,SSE,151,15.0,18.4,54,0.00,BKN,,0.00,0.0,WeatherDisplay:10.37,2013-11-06 23:28:00,
2013-11-06 18:33:00,62.1,45.2,30.12,SSE,163,7.9,15.0,54,0.00,BKN,,0.00,0.0,WeatherDisplay:10.37,2013-11-06 23:33:00,
2013-11-06 18:38:00,61.8,45.0,30.12,South,177,10.6,13.8,54,0.00,BKN,,0.00,0.0,WeatherDisplay:10.37,2013-11-06 23:38:00,
2013-11-06 18:43:00,62.1,45.2,30.12,SSW,199,7.5,19.6,54,0.00,BKN,,0.00,0.0,WeatherDisplay:10.37,2013-11-06 23:43:00,
2013-11-06 18:48:00,62.1,45.2,30.12,SSE,147,4.9,13.8,54,0.00,BKN,,0.00,0.0,WeatherDisplay:10.37,2013-11-06 23:48:00,
2013-11-06 18:53:00,62.1,45.2,30.12,SW,229,10.2,10.5,54,0.00,BKN,,0.00,0.0,WeatherDisplay:10.37,2013-11-06 23:53:00,
2013-11-06 18:58:00,62.1,45.2,30.12,SSE,163,0.8,3.5,54,0.00,BKN,,0.00,0.0,WeatherDisplay:10.37,2013-11-06 23:58:00,
2013-11-06 19:03:00,62.0,45.2,30.11,SSE,163,8.0,9.2,54,0.00,BKN,,0.00,0.0,WeatherDisplay:10.37,2013-11-07 00:03:00,
2013-11-06 19:08:00,62.0,45.6,30.11,SSE,150,8.7,16.5,55,0.00,BKN,,0.00,0.0,WeatherDisplay:10.37,2013-11-07 00:08:00,
2013-11-06 19:13:00,62.0,45.6,30.11,SSE,148,16.5,18.4,55,0.00,SCT,,0.00,0.0,WeatherDisplay:10.37,2013-11-07 00:13:00,
2013-11-06 19:18:00,62.1,45.7,30.11,SSE,150,14.0,21.0,55,0.00,SCT,,0.00,0.0,WeatherDisplay:10.37,2013-11-07 00:18:00,
2013-11-06 19:23:00,62.1,46.2,30.11,SSE,148,8.8,16.1,56,0.00,SCT,,0.00,0.0,WeatherDisplay:10.37,2013-11-07 00:23:00,
2013-11-06 19:28:00,62.1,46.2,30.11,South,180,11.2,23.0,56,0.00,SCT,,0.00,0.0,WeatherDisplay:10.37,2013-11-07 00:28:00,
2013-11-06 19:33:00,62.1,46.2,30.11,SSE,149,11.6,19.6,56,0.00,SCT,,0.00,0.0,WeatherDisplay:10.37,2013-11-07 00:33:00,
2013-11-06 19:38:00,62.0,46.1,30.11,SE,141,12.0,22.5,56,0.00,SCT,,0.00,0.0,WeatherDisplay:10.37,2013-11-07 00:38:00,
2013-11-06 19:43:00,61.8,46.4,30.11,SE,146,12.9,15.0,57,0.00,SCT,,0.00,0.0,WeatherDisplay:10.37,2013-11-07 00:43:00,
2013-11-06 19:48:00,61.6,46.2,30.10,South,180,8.3,15.0,57,0.00,SCT,,0.00,0.0,WeatherDisplay:10.37,2013-11-07 00:48:00,
2013-11-06 19:53:00,61.5,46.1,30.10,SSE,164,13.8,16.1,57,0.00,SCT,,0.00,0.0,WeatherDisplay:10.37,2013-11-07 00:53:00,
2013-11-06 19:58:00,61.5,46.1,30.10,SSE,150,19.5,23.0,57,0.00,SCT,,0.00,0.0,WeatherDisplay:10.37,2013-11-07 00:58:00,
2013-11-06 20:03:00,61.5,46.1,30.10,SSE,148,10.2,10.5,57,0.00,SCT,,0.00,0.0,WeatherDisplay:10.37,2013-11-07 01:03:00,
2013-11-06 20:08:00,61.3,45.9,30.10,SSE,148,11.7,16.5,57,0.00,SCT,,0.00,0.0,WeatherDisplay:10.37,2013-11-07 01:08:00,
2013-11-06 20:13:00,61.3,45.9,30.10,SSE,150,10.9,15.0,57,0.00,SCT,,0.00,0.0,WeatherDisplay:10.37,2013-11-07 01:13:00,
2013-11-06 20:18:00,61.3,45.9,30.09,SSE,156,14.2,15.0,57,0.00,SCT,,0.00,0.0,WeatherDisplay:10.37,2013-11-07 01:18:00,
2013-11-06 20:23:00,61.3,45.9,30.09,SE,146,10.9,20.7,57,0.00,SCT,,0.00,0.0,WeatherDisplay:10.37,2013-11-07 01:23:00,
2013-11-06 20:28:00,61.3,45.9,30.09,SSE,154,12.0,15.0,57,0.00,SCT,,0.00,0.0,WeatherDisplay:10.37,2013-11-07 01:28:00,
2013-11-06 20:33:00,61.3,45.9,30.09,ESE,119,9.8,16.1,57,0.00,SCT,,0.00,0.0,WeatherDisplay:10.37,2013-11-07 01:33:00,
2013-11-06 20:38:00,61.2,45.8,30.09,SSE,157,6.4,9.0,57,0.00,SCT,,0.00,0.0,WeatherDisplay:10.37,2013-11-07 01:38:00,
2013-11-06 20:43:00,61.0,46.1,30.09,SSE,164,6.2,10.5,58,0.00,SCT,,0.00,0.0,WeatherDisplay:10.37,2013-11-07 01:43:00,
2013-11-06 20:48:00,60.9,46.0,30.09,South,171,8.0,9.2,58,0.00,SCT,,0.00,0.0,WeatherDisplay:10.37,2013-11-07 01:48:00,
2013-11-06 20:53:00,60.5,46.1,30.09,South,182,7.3,10.4,59,0.00,SCT,,0.00,0.0,WeatherDisplay:10.37,2013-11-07 01:53:00,
2013-11-06 20:58:00,60.5,46.1,30.09,SSE,151,5.5,9.2,59,0.00,SCT,,0.00,0.0,WeatherDisplay:10.37,2013-11-07 01:58:00,
2013-11-06 21:03:00,60.4,46.0,30.08,SSE,159,7.2,10.4,59,0.00,FEW,,0.00,0.0,WeatherDisplay:10.37,2013-11-07 02:03:00,
2013-11-06 21:08:00,60.4,46.0,30.08,SSE,151,8.3,10.4,59,0.00,FEW,,0.00,0.0,WeatherDisplay:10.37,2013-11-07 02:08:00,
2013-11-06 21:13:00,60.5,46.1,30.08,SSE,150,3.6,8.1,59,0.00,FEW,,0.00,0.0,WeatherDisplay:10.37,2013-11-07 02:13:00,
2013-11-06 21:18:00,60.7,46.3,30.08,WSW,255,6.6,15.0,59,0.00,FEW,,0.00,0.0,WeatherDisplay:10.37,2013-11-07 02:18:00,
2013-11-06 21:23:00,60.9,46.5,30.08,SW,220,8.6,16.1,59,0.00,FEW,,0.00,0.0,WeatherDisplay:10.37,2013-11-07 02:23:00,
2013-11-06 21:28:00,61.2,46.3,30.08,SSE,152,5.6,13.8,58,0.00,FEW,,0.00,0.0,WeatherDisplay:10.37,2013-11-07 02:28:00,
2013-11-06 21:33:00,61.3,46.4,30.08,South,182,10.2,15.0,58,0.00,FEW,,0.00,0.0,WeatherDisplay:10.37,2013-11-07 02:33:00,
2013-11-06 21:38:00,61.5,46.1,30.07,SSE,148,9.0,9.0,57,0.00,FEW,,0.00,0.0,WeatherDisplay:10.37,2013-11-07 02:38:00,
2013-11-06 21:43:00,61.5,46.1,30.07,SSW,192,7.3,9.2,57,0.00,FEW,,0.00,0.0,WeatherDisplay:10.37,2013-11-07 02:43:00,
2013-11-06 21:48:00,61.5,46.1,30.07,SSE,154,6.6,9.2,57,0.00,FEW,,0.00,0.0,WeatherDisplay:10.37,2013-11-07 02:48:00,
2013-11-06 21:53:00,61.3,45.9,30.07,SE,137,7.2,13.8,57,0.00,FEW,,0.00,0.0,WeatherDisplay:10.37,2013-11-07 02:53:00,
2013-11-06 21:58:00,61.2,46.3,30.07,SSE,159,6.9,9.2,58,0.00,FEW,,0.00,0.0,WeatherDisplay:10.37,2013-11-07 02:58:00,
2013-11-06 22:03:00,61.0,46.1,30.07,SSE,165,3.9,5.8,58,0.00,FEW,,0.00,0.0,WeatherDisplay:10.37,2013-11-07 03:03:00,
2013-11-06 22:08:00,60.7,46.3,30.07,SE,144,7.2,9.0,59,0.00,FEW,,0.00,0.0,WeatherDisplay:10.37,2013-11-07 03:08:00,
2013-11-06 22:13:00,60.5,46.5,30.06,SSE,150,7.8,9.2,60,0.00,FEW,,0.00,0.0,WeatherDisplay:10.37,2013-11-07 03:13:00,
2013-11-06 22:18:00,60.5,46.5,30.06,SE,145,12.3,13.5,60,0.00,FEW,,0.00,0.0,WeatherDisplay:10.37,2013-11-07 03:18:00,
2013-11-06 22:23:00,60.7,46.3,30.06,SE,130,9.4,13.5,59,0.00,FEW,,0.00,0.0,WeatherDisplay:10.37,2013-11-07 03:23:00,
2013-11-06 22:28:00,60.7,46.7,30.05,SSE,164,6.8,13.8,60,0.00,FEW,,0.00,0.0,WeatherDisplay:10.37,2013-11-07 03:28:00,
2013-11-06 22:33:00,60.7,46.7,30.05,SSE,154,9.7,15.0,60,0.00,FEW,,0.00,0.0,WeatherDisplay:10.37,2013-11-07 03:33:00,
2013-11-06 22:38:00,60.5,46.5,30.04,South,190,9.7,10.5,60,0.00,FEW,,0.00,0.0,WeatherDisplay:10.37,2013-11-07 03:38:00,
2013-11-06 22:43:00,60.7,46.7,30.04,SSE,154,10.4,10.4,60,0.00,FEW,,0.00,0.0,WeatherDisplay:10.37,2013-11-07 03:43:00,
2013-11-06 22:48:00,60.5,46.5,30.04,SSE,161,4.5,8.1,60,0.00,FEW,,0.00,0.0,WeatherDisplay:10.37,2013-11-07 03:48:00,
2013-11-06 22:53:00,60.4,46.4,30.04,WSW,238,6.6,8.1,60,0.00,FEW,,0.00,0.0,WeatherDisplay:10.37,2013-11-07 03:53:00,
2013-11-06 22:58:00,60.5,46.5,30.04,SSE,167,7.4,9.2,60,0.00,FEW,,0.00,0.0,WeatherDisplay:10.37,2013-11-07 03:58:00,
2013-11-06 23:03:00,60.7,46.7,30.03,SSE,151,7.8,8.1,60,0.00,CLR,,0.00,0.0,WeatherDisplay:10.37,2013-11-07 04:03:00,
2013-11-06 23:08:00,60.7,46.7,30.03,SSE,165,1.9,8.1,60,0.00,CLR,,0.00,0.0,WeatherDisplay:10.37,2013-11-07 04:08:00,
2013-11-06 23:13:00,60.5,46.5,30.03,SSE,156,3.3,7.5,60,0.00,CLR,,0.00,0.0,WeatherDisplay:10.37,2013-11-07 04:13:00,
2013-11-06 23:18:00,60.4,46.4,30.02,South,178,5.1,8.1,60,0.00,CLR,,0.00,0.0,WeatherDisplay:10.37,2013-11-07 04:18:00,
2013-11-06 23:23:00,60.9,46.9,30.02,SSE,152,3.2,9.2,60,0.00,CLR,,0.00,0.0,WeatherDisplay:10.37,2013-11-07 04:23:00,
2013-11-06 23:28:00,60.9,46.9,30.02,SSW,210,7.2,9.2,60,0.00,CLR,,0.00,0.0,WeatherDisplay:10.37,2013-11-07 04:28:00,
2013-11-06 23:33:00,61.0,47.0,30.02,SSE,155,4.9,10.5,60,0.00,CLR,,0.00,0.0,WeatherDisplay:10.37,2013-11-07 04:33:00,
2013-11-06 23:38:00,61.2,47.2,30.02,SSE,157,5.6,8.1,60,0.00,CLR,,0.00,0.0,WeatherDisplay:10.37,2013-11-07 04:38:00,
2013-11-06 23:43:00,61.3,47.3,30.02,SSE,155,8.7,13.8,60,0.00,CLR,,0.00,0.0,WeatherDisplay:10.37,2013-11-07 04:43:00,
2013-11-06 23:48:00,61.8,47.3,30.02,SSE,161,6.4,6.4,59,0.00,CLR,,0.00,0.0,WeatherDisplay:10.37,2013-11-07 04:48:00,
2013-11-06 23:53:00,61.8,47.3,30.02,SSE,160,7.0,10.4,59,0.00,CLR,,0.00,0.0,WeatherDisplay:10.37,2013-11-07 04:53:00,
2013-11-06 23:58:00,61.8,47.3,30.01,SSW,207,7.8,9.2,59,0.00,CLR,,0.00,0.0,WeatherDisplay:10.37,2013-11-07 04:58:00,